sensor_id;sensor_type;location;lat;lon;timestamp;P1;durP1;ratioP1;P2;durP2;ratioP2
51718;SDS011;37795;53.236;5.704;2022-08-02T00:01:41;10.45;;;3.03;;
51718;SDS011;37795;53.236;5.704;2022-08-02T00:04:08;8.30;;;3.25;;
51718;SDS011;37795;53.236;5.704;2022-08-02T00:06:34;6.68;;;3.03;;
51718;SDS011;37795;53.236;5.704;2022-08-02T00:09:00;7.20;;;3.13;;
51718;SDS011;37795;53.236;5.704;2022-08-02T00:11:26;9.88;;;3.30;;
51718;SDS011;37795;53.236;5.704;2022-08-02T00:13:52;6.88;;;2.78;;
51718;SDS011;37795;53.236;5.704;2022-08-02T00:16:19;6.47;;;3.08;;
51718;SDS011;37795;53.236;5.704;2022-08-02T00:18:45;11.48;;;3.30;;
51718;SDS011;37795;53.236;5.704;2022-08-02T00:21:11;6.00;;;3.10;;
51718;SDS011;37795;53.236;5.704;2022-08-02T00:23:37;6.97;;;2.75;;
51718;SDS011;37795;53.236;5.704;2022-08-02T00:26:03;6.93;;;3.13;;
51718;SDS011;37795;53.236;5.704;2022-08-02T00:28:29;7.97;;;3.10;;
51718;SDS011;37795;53.236;5.704;2022-08-02T00:30:58;7.30;;;3.72;;
51718;SDS011;37795;53.236;5.704;2022-08-02T00:33:25;4.95;;;2.50;;
51718;SDS011;37795;53.236;5.704;2022-08-02T00:35:51;4.82;;;3.03;;
51718;SDS011;37795;53.236;5.704;2022-08-02T00:38:17;6.78;;;3.30;;
51718;SDS011;37795;53.236;5.704;2022-08-02T00:40:49;6.07;;;3.15;;
51718;SDS011;37795;53.236;5.704;2022-08-02T00:43:16;5.80;;;3.00;;
51718;SDS011;37795;53.236;5.704;2022-08-02T00:45:42;6.35;;;3.13;;
51718;SDS011;37795;53.236;5.704;2022-08-02T00:48:09;7.88;;;3.50;;
51718;SDS011;37795;53.236;5.704;2022-08-02T00:50:35;6.63;;;3.15;;
51718;SDS011;37795;53.236;5.704;2022-08-02T00:53:02;8.55;;;3.10;;
51718;SDS011;37795;53.236;5.704;2022-08-02T00:55:29;5.97;;;3.30;;
51718;SDS011;37795;53.236;5.704;2022-08-02T00:57:55;6.75;;;3.13;;
51718;SDS011;37795;53.236;5.704;2022-08-02T01:00:21;8.35;;;3.60;;
51718;SDS011;37795;53.236;5.704;2022-08-02T01:02:48;9.88;;;3.85;;
51718;SDS011;37795;53.236;5.704;2022-08-02T01:05:14;6.93;;;3.42;;
51718;SDS011;37795;53.236;5.704;2022-08-02T01:07:40;8.97;;;3.63;;
51718;SDS011;37795;53.236;5.704;2022-08-02T01:10:07;6.63;;;3.35;;
51718;SDS011;37795;53.236;5.704;2022-08-02T01:12:33;6.40;;;3.45;;
51718;SDS011;37795;53.236;5.704;2022-08-02T01:15:04;8.90;;;3.25;;
51718;SDS011;37795;53.236;5.704;2022-08-02T01:20:54;8.23;;;3.70;;
51718;SDS011;37795;53.236;5.704;2022-08-02T01:33:46;6.32;;;3.15;;
51718;SDS011;37795;53.236;5.704;2022-08-02T01:36:13;10.15;;;3.63;;
51718;SDS011;37795;53.236;5.704;2022-08-02T01:38:43;5.90;;;3.50;;
51718;SDS011;37795;53.236;5.704;2022-08-02T01:41:13;8.85;;;3.70;;
51718;SDS011;37795;53.236;5.704;2022-08-02T01:43:41;7.22;;;3.78;;
51718;SDS011;37795;53.236;5.704;2022-08-02T01:46:09;7.10;;;3.17;;
51718;SDS011;37795;53.236;5.704;2022-08-02T01:48:37;7.90;;;3.70;;
51718;SDS011;37795;53.236;5.704;2022-08-02T01:51:05;7.93;;;4.05;;
51718;SDS011;37795;53.236;5.704;2022-08-02T01:53:32;9.65;;;3.85;;
51718;SDS011;37795;53.236;5.704;2022-08-02T01:55:59;7.95;;;3.92;;
51718;SDS011;37795;53.236;5.704;2022-08-02T01:58:28;8.00;;;4.47;;
51718;SDS011;37795;53.236;5.704;2022-08-02T02:00:56;9.45;;;4.50;;
51718;SDS011;37795;53.236;5.704;2022-08-02T02:03:23;11.40;;;4.15;;
51718;SDS011;37795;53.236;5.704;2022-08-02T02:05:50;5.88;;;4.15;;
51718;SDS011;37795;53.236;5.704;2022-08-02T02:08:20;8.05;;;3.88;;
51718;SDS011;37795;53.236;5.704;2022-08-02T02:10:48;7.55;;;3.55;;
51718;SDS011;37795;53.236;5.704;2022-08-02T02:13:16;7.00;;;3.63;;
51718;SDS011;37795;53.236;5.704;2022-08-02T02:15:43;6.10;;;3.70;;
51718;SDS011;37795;53.236;5.704;2022-08-02T02:18:12;5.88;;;3.85;;
51718;SDS011;37795;53.236;5.704;2022-08-02T02:20:40;7.30;;;3.50;;
51718;SDS011;37795;53.236;5.704;2022-08-02T02:23:06;7.28;;;3.90;;
51718;SDS011;37795;53.236;5.704;2022-08-02T02:25:32;8.07;;;3.57;;
51718;SDS011;37795;53.236;5.704;2022-08-02T02:28:03;7.45;;;4.13;;
51718;SDS011;37795;53.236;5.704;2022-08-02T02:30:30;9.18;;;3.60;;
51718;SDS011;37795;53.236;5.704;2022-08-02T02:32:57;10.00;;;3.75;;
51718;SDS011;37795;53.236;5.704;2022-08-02T02:35:26;10.07;;;4.15;;
51718;SDS011;37795;53.236;5.704;2022-08-02T02:37:53;12.02;;;4.25;;
51718;SDS011;37795;53.236;5.704;2022-08-02T02:40:20;8.45;;;4.75;;
51718;SDS011;37795;53.236;5.704;2022-08-02T02:42:48;11.03;;;4.10;;
51718;SDS011;37795;53.236;5.704;2022-08-02T02:45:15;12.07;;;4.43;;
51718;SDS011;37795;53.236;5.704;2022-08-02T02:47:42;6.45;;;4.00;;
51718;SDS011;37795;53.236;5.704;2022-08-02T02:50:09;7.18;;;4.20;;
51718;SDS011;37795;53.236;5.704;2022-08-02T02:52:36;8.05;;;4.25;;
51718;SDS011;37795;53.236;5.704;2022-08-02T02:55:02;6.00;;;4.03;;
51718;SDS011;37795;53.236;5.704;2022-08-02T02:57:28;8.32;;;4.07;;
51718;SDS011;37795;53.236;5.704;2022-08-02T02:59:55;7.77;;;3.90;;
51718;SDS011;37795;53.236;5.704;2022-08-02T03:02:22;8.07;;;4.38;;
51718;SDS011;37795;53.236;5.704;2022-08-02T03:04:48;15.32;;;3.95;;
51718;SDS011;37795;53.236;5.704;2022-08-02T03:07:15;11.43;;;4.78;;
51718;SDS011;37795;53.236;5.704;2022-08-02T03:09:41;9.20;;;4.05;;
51718;SDS011;37795;53.236;5.704;2022-08-02T03:12:07;6.53;;;3.65;;
51718;SDS011;37795;53.236;5.704;2022-08-02T03:14:34;8.93;;;4.22;;
51718;SDS011;37795;53.236;5.704;2022-08-02T03:17:00;11.40;;;4.57;;
51718;SDS011;37795;53.236;5.704;2022-08-02T03:19:26;10.00;;;4.30;;
51718;SDS011;37795;53.236;5.704;2022-08-02T03:21:52;8.50;;;3.78;;
51718;SDS011;37795;53.236;5.704;2022-08-02T03:24:18;9.98;;;3.92;;
51718;SDS011;37795;53.236;5.704;2022-08-02T03:26:44;8.13;;;4.40;;
51718;SDS011;37795;53.236;5.704;2022-08-02T03:29:11;7.90;;;4.45;;
51718;SDS011;37795;53.236;5.704;2022-08-02T03:31:38;8.90;;;4.07;;
51718;SDS011;37795;53.236;5.704;2022-08-02T03:34:05;5.82;;;3.60;;
51718;SDS011;37795;53.236;5.704;2022-08-02T03:36:31;6.78;;;3.78;;
51718;SDS011;37795;53.236;5.704;2022-08-02T03:38:58;11.55;;;4.35;;
51718;SDS011;37795;53.236;5.704;2022-08-02T03:41:25;7.57;;;4.03;;
51718;SDS011;37795;53.236;5.704;2022-08-02T03:43:51;10.38;;;4.03;;
51718;SDS011;37795;53.236;5.704;2022-08-02T03:46:21;6.85;;;4.15;;
51718;SDS011;37795;53.236;5.704;2022-08-02T03:48:49;8.68;;;4.13;;
51718;SDS011;37795;53.236;5.704;2022-08-02T03:51:15;9.27;;;4.50;;
51718;SDS011;37795;53.236;5.704;2022-08-02T03:53:42;7.40;;;4.43;;
51718;SDS011;37795;53.236;5.704;2022-08-02T03:56:09;8.48;;;3.75;;
51718;SDS011;37795;53.236;5.704;2022-08-02T03:58:35;10.70;;;4.60;;
51718;SDS011;37795;53.236;5.704;2022-08-02T04:01:01;10.80;;;4.43;;
51718;SDS011;37795;53.236;5.704;2022-08-02T04:03:27;8.73;;;4.32;;
51718;SDS011;37795;53.236;5.704;2022-08-02T04:05:53;11.23;;;4.78;;
51718;SDS011;37795;53.236;5.704;2022-08-02T04:08:20;9.10;;;4.67;;
51718;SDS011;37795;53.236;5.704;2022-08-02T04:10:46;8.98;;;4.40;;
51718;SDS011;37795;53.236;5.704;2022-08-02T04:13:31;8.53;;;4.20;;
51718;SDS011;37795;53.236;5.704;2022-08-02T04:16:02;6.00;;;4.22;;
51718;SDS011;37795;53.236;5.704;2022-08-02T04:18:29;10.10;;;4.28;;
51718;SDS011;37795;53.236;5.704;2022-08-02T04:20:57;7.30;;;3.77;;
51718;SDS011;37795;53.236;5.704;2022-08-02T04:23:24;6.63;;;4.53;;
51718;SDS011;37795;53.236;5.704;2022-08-02T04:25:51;9.40;;;4.28;;
51718;SDS011;37795;53.236;5.704;2022-08-02T04:28:18;6.15;;;3.92;;
51718;SDS011;37795;53.236;5.704;2022-08-02T04:30:45;7.25;;;3.97;;
51718;SDS011;37795;53.236;5.704;2022-08-02T04:33:11;8.48;;;4.53;;
51718;SDS011;37795;53.236;5.704;2022-08-02T04:35:37;5.65;;;4.13;;
51718;SDS011;37795;53.236;5.704;2022-08-02T04:38:03;7.78;;;4.55;;
51718;SDS011;37795;53.236;5.704;2022-08-02T04:40:29;7.25;;;4.07;;
51718;SDS011;37795;53.236;5.704;2022-08-02T04:42:56;7.30;;;4.57;;
51718;SDS011;37795;53.236;5.704;2022-08-02T04:45:22;8.20;;;4.37;;
51718;SDS011;37795;53.236;5.704;2022-08-02T04:47:48;11.77;;;4.97;;
51718;SDS011;37795;53.236;5.704;2022-08-02T04:50:14;9.57;;;4.80;;
51718;SDS011;37795;53.236;5.704;2022-08-02T04:52:40;7.18;;;4.43;;
51718;SDS011;37795;53.236;5.704;2022-08-02T04:55:06;6.68;;;4.45;;
51718;SDS011;37795;53.236;5.704;2022-08-02T04:57:32;9.40;;;4.93;;
51718;SDS011;37795;53.236;5.704;2022-08-02T05:00:17;7.78;;;3.80;;
51718;SDS011;37795;53.236;5.704;2022-08-02T05:02:43;7.43;;;4.17;;
51718;SDS011;37795;53.236;5.704;2022-08-02T05:05:09;7.97;;;4.10;;
51718;SDS011;37795;53.236;5.704;2022-08-02T05:07:35;8.30;;;4.50;;
51718;SDS011;37795;53.236;5.704;2022-08-02T05:10:01;12.57;;;4.65;;
51718;SDS011;37795;53.236;5.704;2022-08-02T05:12:27;6.28;;;4.15;;
51718;SDS011;37795;53.236;5.704;2022-08-02T05:14:53;6.93;;;4.60;;
51718;SDS011;37795;53.236;5.704;2022-08-02T05:17:19;5.97;;;4.05;;
51718;SDS011;37795;53.236;5.704;2022-08-02T05:19:46;8.15;;;4.20;;
51718;SDS011;37795;53.236;5.704;2022-08-02T05:22:12;7.28;;;4.40;;
51718;SDS011;37795;53.236;5.704;2022-08-02T05:24:38;7.80;;;3.92;;
51718;SDS011;37795;53.236;5.704;2022-08-02T05:27:04;10.30;;;4.03;;
51718;SDS011;37795;53.236;5.704;2022-08-02T05:29:30;5.22;;;3.47;;
51718;SDS011;37795;53.236;5.704;2022-08-02T05:31:56;8.10;;;3.67;;
51718;SDS011;37795;53.236;5.704;2022-08-02T05:34:22;7.57;;;4.05;;
51718;SDS011;37795;53.236;5.704;2022-08-02T05:36:48;9.25;;;4.32;;
51718;SDS011;37795;53.236;5.704;2022-08-02T05:39:14;11.75;;;4.25;;
51718;SDS011;37795;53.236;5.704;2022-08-02T05:41:40;9.65;;;3.60;;
51718;SDS011;37795;53.236;5.704;2022-08-02T05:44:06;5.40;;;3.55;;
51718;SDS011;37795;53.236;5.704;2022-08-02T05:46:32;12.25;;;3.38;;
51718;SDS011;37795;53.236;5.704;2022-08-02T05:48:58;4.60;;;3.23;;
51718;SDS011;37795;53.236;5.704;2022-08-02T05:51:35;9.00;;;4.13;;
51718;SDS011;37795;53.236;5.704;2022-08-02T05:56:50;6.63;;;3.60;;
51718;SDS011;37795;53.236;5.704;2022-08-02T06:01:45;8.52;;;3.17;;
51718;SDS011;37795;53.236;5.704;2022-08-02T06:04:17;8.57;;;3.47;;
51718;SDS011;37795;53.236;5.704;2022-08-02T06:06:44;5.18;;;3.10;;
51718;SDS011;37795;53.236;5.704;2022-08-02T06:09:14;7.25;;;3.28;;
51718;SDS011;37795;53.236;5.704;2022-08-02T06:11:44;6.00;;;3.47;;
51718;SDS011;37795;53.236;5.704;2022-08-02T06:14:11;6.73;;;2.83;;
51718;SDS011;37795;53.236;5.704;2022-08-02T06:16:37;9.00;;;3.00;;
51718;SDS011;37795;53.236;5.704;2022-08-02T06:19:04;6.63;;;3.25;;
51718;SDS011;37795;53.236;5.704;2022-08-02T06:21:30;6.40;;;2.80;;
51718;SDS011;37795;53.236;5.704;2022-08-02T06:23:57;6.35;;;2.88;;
51718;SDS011;37795;53.236;5.704;2022-08-02T06:26:24;3.70;;;2.47;;
51718;SDS011;37795;53.236;5.704;2022-08-02T06:28:54;5.03;;;3.05;;
51718;SDS011;37795;53.236;5.704;2022-08-02T06:31:20;7.85;;;3.03;;
51718;SDS011;37795;53.236;5.704;2022-08-02T06:33:46;5.85;;;3.00;;
51718;SDS011;37795;53.236;5.704;2022-08-02T06:36:18;5.70;;;2.85;;
51718;SDS011;37795;53.236;5.704;2022-08-02T06:41:42;4.72;;;2.88;;
51718;SDS011;37795;53.236;5.704;2022-08-02T06:44:09;6.85;;;2.67;;
51718;SDS011;37795;53.236;5.704;2022-08-02T06:46:35;6.95;;;2.80;;
51718;SDS011;37795;53.236;5.704;2022-08-02T06:51:59;5.03;;;2.40;;
51718;SDS011;37795;53.236;5.704;2022-08-02T06:54:25;6.47;;;2.90;;
51718;SDS011;37795;53.236;5.704;2022-08-02T06:56:51;5.28;;;2.80;;
51718;SDS011;37795;53.236;5.704;2022-08-02T06:59:17;6.45;;;3.33;;
51718;SDS011;37795;53.236;5.704;2022-08-02T07:01:43;5.60;;;2.85;;
51718;SDS011;37795;53.236;5.704;2022-08-02T07:04:09;5.38;;;3.08;;
51718;SDS011;37795;53.236;5.704;2022-08-02T07:06:35;8.95;;;2.92;;
51718;SDS011;37795;53.236;5.704;2022-08-02T07:09:01;4.20;;;2.30;;
51718;SDS011;37795;53.236;5.704;2022-08-02T07:11:27;4.13;;;2.10;;
51718;SDS011;37795;53.236;5.704;2022-08-02T07:13:54;4.97;;;2.23;;
51718;SDS011;37795;53.236;5.704;2022-08-02T07:16:20;5.57;;;2.10;;
51718;SDS011;37795;53.236;5.704;2022-08-02T07:18:46;3.85;;;2.08;;
51718;SDS011;37795;53.236;5.704;2022-08-02T07:21:12;5.40;;;2.22;;
51718;SDS011;37795;53.236;5.704;2022-08-02T07:23:38;2.70;;;2.03;;
51718;SDS011;37795;53.236;5.704;2022-08-02T07:26:04;7.10;;;2.30;;
51718;SDS011;37795;53.236;5.704;2022-08-02T07:28:30;4.20;;;2.40;;
51718;SDS011;37795;53.236;5.704;2022-08-02T07:30:56;4.10;;;2.35;;
51718;SDS011;37795;53.236;5.704;2022-08-02T07:33:22;3.38;;;1.88;;
51718;SDS011;37795;53.236;5.704;2022-08-02T07:35:48;6.38;;;2.42;;
51718;SDS011;37795;53.236;5.704;2022-08-02T07:38:14;4.03;;;1.98;;
51718;SDS011;37795;53.236;5.704;2022-08-02T07:40:40;4.05;;;2.28;;
51718;SDS011;37795;53.236;5.704;2022-08-02T07:43:06;5.13;;;2.03;;
51718;SDS011;37795;53.236;5.704;2022-08-02T07:45:33;3.40;;;1.80;;
51718;SDS011;37795;53.236;5.704;2022-08-02T07:47:59;5.90;;;2.40;;
51718;SDS011;37795;53.236;5.704;2022-08-02T07:50:25;3.90;;;2.40;;
51718;SDS011;37795;53.236;5.704;2022-08-02T07:52:52;5.00;;;2.63;;
51718;SDS011;37795;53.236;5.704;2022-08-02T07:55:18;4.75;;;2.35;;
51718;SDS011;37795;53.236;5.704;2022-08-02T07:57:44;3.67;;;2.30;;
51718;SDS011;37795;53.236;5.704;2022-08-02T08:00:11;6.15;;;3.17;;
51718;SDS011;37795;53.236;5.704;2022-08-02T08:02:37;4.20;;;2.58;;
51718;SDS011;37795;53.236;5.704;2022-08-02T08:05:03;5.85;;;2.60;;
51718;SDS011;37795;53.236;5.704;2022-08-02T08:07:31;6.25;;;2.50;;
51718;SDS011;37795;53.236;5.704;2022-08-02T08:09:57;4.60;;;2.60;;
51718;SDS011;37795;53.236;5.704;2022-08-02T08:12:24;7.07;;;3.15;;
51718;SDS011;37795;53.236;5.704;2022-08-02T08:14:50;6.43;;;2.85;;
51718;SDS011;37795;53.236;5.704;2022-08-02T08:17:16;5.68;;;2.90;;
51718;SDS011;37795;53.236;5.704;2022-08-02T08:19:42;4.90;;;3.10;;
51718;SDS011;37795;53.236;5.704;2022-08-02T08:22:08;6.68;;;3.38;;
51718;SDS011;37795;53.236;5.704;2022-08-02T08:24:34;6.45;;;3.38;;
51718;SDS011;37795;53.236;5.704;2022-08-02T08:27:00;4.97;;;3.20;;
51718;SDS011;37795;53.236;5.704;2022-08-02T08:29:26;6.82;;;3.50;;
51718;SDS011;37795;53.236;5.704;2022-08-02T08:31:52;6.15;;;3.58;;
51718;SDS011;37795;53.236;5.704;2022-08-02T08:34:18;6.70;;;3.72;;
51718;SDS011;37795;53.236;5.704;2022-08-02T08:36:44;5.90;;;3.50;;
51718;SDS011;37795;53.236;5.704;2022-08-02T08:39:10;12.70;;;4.00;;
51718;SDS011;37795;53.236;5.704;2022-08-02T08:41:36;11.60;;;3.85;;
51718;SDS011;37795;53.236;5.704;2022-08-02T08:44:03;5.50;;;3.40;;
51718;SDS011;37795;53.236;5.704;2022-08-02T08:46:30;7.65;;;3.63;;
51718;SDS011;37795;53.236;5.704;2022-08-02T08:49:02;4.40;;;3.22;;
51718;SDS011;37795;53.236;5.704;2022-08-02T08:51:35;5.50;;;3.67;;
51718;SDS011;37795;53.236;5.704;2022-08-02T08:54:01;6.47;;;3.63;;
51718;SDS011;37795;53.236;5.704;2022-08-02T08:56:30;6.40;;;3.70;;
51718;SDS011;37795;53.236;5.704;2022-08-02T08:58:57;7.07;;;3.42;;
51718;SDS011;37795;53.236;5.704;2022-08-02T09:01:23;5.40;;;4.13;;
51718;SDS011;37795;53.236;5.704;2022-08-02T09:03:49;6.43;;;3.85;;
51718;SDS011;37795;53.236;5.704;2022-08-02T09:06:15;6.57;;;4.15;;
51718;SDS011;37795;53.236;5.704;2022-08-02T09:08:42;6.10;;;4.32;;
51718;SDS011;37795;53.236;5.704;2022-08-02T09:11:11;9.00;;;4.95;;
51718;SDS011;37795;53.236;5.704;2022-08-02T09:13:38;6.88;;;5.22;;
51718;SDS011;37795;53.236;5.704;2022-08-02T09:16:12;7.43;;;4.97;;
51718;SDS011;37795;53.236;5.704;2022-08-02T09:18:42;7.22;;;5.20;;
51718;SDS011;37795;53.236;5.704;2022-08-02T09:21:09;7.70;;;6.15;;
51718;SDS011;37795;53.236;5.704;2022-08-02T09:23:46;8.90;;;5.80;;
51718;SDS011;37795;53.236;5.704;2022-08-02T09:26:13;8.85;;;6.30;;
51718;SDS011;37795;53.236;5.704;2022-08-02T09:28:40;11.45;;;5.88;;
51718;SDS011;37795;53.236;5.704;2022-08-02T09:33:36;7.60;;;6.07;;
51718;SDS011;37795;53.236;5.704;2022-08-02T09:36:12;9.77;;;6.00;;
51718;SDS011;37795;53.236;5.704;2022-08-02T09:38:39;7.32;;;5.72;;
51718;SDS011;37795;53.236;5.704;2022-08-02T09:41:18;8.47;;;5.97;;
51718;SDS011;37795;53.236;5.704;2022-08-02T09:43:44;7.35;;;5.43;;
51718;SDS011;37795;53.236;5.704;2022-08-02T09:46:17;9.63;;;5.80;;
51718;SDS011;37795;53.236;5.704;2022-08-02T09:48:48;8.98;;;6.07;;
51718;SDS011;37795;53.236;5.704;2022-08-02T09:51:18;7.18;;;6.22;;
51718;SDS011;37795;53.236;5.704;2022-08-02T09:53:45;11.88;;;6.85;;
51718;SDS011;37795;53.236;5.704;2022-08-02T09:56:11;9.57;;;7.03;;
51718;SDS011;37795;53.236;5.704;2022-08-02T09:58:38;10.23;;;7.27;;
51718;SDS011;37795;53.236;5.704;2022-08-02T10:01:04;9.20;;;7.38;;
51718;SDS011;37795;53.236;5.704;2022-08-02T10:03:30;11.50;;;8.17;;
51718;SDS011;37795;53.236;5.704;2022-08-02T10:05:56;14.52;;;7.55;;
51718;SDS011;37795;53.236;5.704;2022-08-02T10:08:24;11.25;;;8.57;;
51718;SDS011;37795;53.236;5.704;2022-08-02T10:10:50;12.27;;;9.18;;
51718;SDS011;37795;53.236;5.704;2022-08-02T10:13:34;13.60;;;9.95;;
51718;SDS011;37795;53.236;5.704;2022-08-02T10:16:01;14.68;;;9.88;;
51718;SDS011;37795;53.236;5.704;2022-08-02T10:18:27;13.32;;;9.25;;
51718;SDS011;37795;53.236;5.704;2022-08-02T10:20:55;12.32;;;9.40;;
51718;SDS011;37795;53.236;5.704;2022-08-02T10:23:21;9.57;;;8.68;;
51718;SDS011;37795;53.236;5.704;2022-08-02T10:25:50;13.95;;;9.65;;
51718;SDS011;37795;53.236;5.704;2022-08-02T10:28:19;12.07;;;9.38;;
51718;SDS011;37795;53.236;5.704;2022-08-02T10:30:50;11.55;;;8.93;;
51718;SDS011;37795;53.236;5.704;2022-08-02T10:33:18;11.38;;;9.90;;
51718;SDS011;37795;53.236;5.704;2022-08-02T10:35:44;20.48;;;10.25;;
51718;SDS011;37795;53.236;5.704;2022-08-02T10:38:12;12.40;;;9.73;;
51718;SDS011;37795;53.236;5.704;2022-08-02T10:40:41;14.95;;;10.88;;
51718;SDS011;37795;53.236;5.704;2022-08-02T10:43:07;12.20;;;10.10;;
51718;SDS011;37795;53.236;5.704;2022-08-02T10:45:33;11.63;;;10.30;;
51718;SDS011;37795;53.236;5.704;2022-08-02T10:54:26;13.70;;;10.50;;
51718;SDS011;37795;53.236;5.704;2022-08-02T10:56:54;10.10;;;8.88;;
51718;SDS011;37795;53.236;5.704;2022-08-02T10:59:24;13.75;;;9.50;;
51718;SDS011;37795;53.236;5.704;2022-08-02T11:01:51;11.57;;;9.70;;
51718;SDS011;37795;53.236;5.704;2022-08-02T11:04:25;11.88;;;9.45;;
51718;SDS011;37795;53.236;5.704;2022-08-02T11:09:35;15.60;;;10.00;;
51718;SDS011;37795;53.236;5.704;2022-08-02T11:12:03;11.73;;;10.55;;
51718;SDS011;37795;53.236;5.704;2022-08-02T11:14:30;13.18;;;10.18;;
51718;SDS011;37795;53.236;5.704;2022-08-02T11:19:23;13.00;;;10.43;;
51718;SDS011;37795;53.236;5.704;2022-08-02T11:22:03;13.32;;;10.75;;
51718;SDS011;37795;53.236;5.704;2022-08-02T11:24:30;14.20;;;10.80;;
51718;SDS011;37795;53.236;5.704;2022-08-02T11:26:57;14.40;;;11.10;;
51718;SDS011;37795;53.236;5.704;2022-08-02T11:31:58;16.23;;;11.63;;
51718;SDS011;37795;53.236;5.704;2022-08-02T11:34:25;14.02;;;12.10;;
51718;SDS011;37795;53.236;5.704;2022-08-02T11:36:51;15.02;;;11.85;;
51718;SDS011;37795;53.236;5.704;2022-08-02T11:39:18;13.52;;;11.05;;
51718;SDS011;37795;53.236;5.704;2022-08-02T11:41:51;15.23;;;12.30;;
51718;SDS011;37795;53.236;5.704;2022-08-02T11:44:18;16.10;;;13.25;;
51718;SDS011;37795;53.236;5.704;2022-08-02T11:46:44;17.35;;;13.50;;
51718;SDS011;37795;53.236;5.704;2022-08-02T11:49:14;15.20;;;13.57;;
51718;SDS011;37795;53.236;5.704;2022-08-02T11:54:25;15.30;;;13.45;;
51718;SDS011;37795;53.236;5.704;2022-08-02T11:56:51;16.80;;;13.15;;
51718;SDS011;37795;53.236;5.704;2022-08-02T11:59:17;16.20;;;13.45;;
51718;SDS011;37795;53.236;5.704;2022-08-02T12:01:44;17.63;;;13.82;;
51718;SDS011;37795;53.236;5.704;2022-08-02T12:04:10;15.25;;;13.18;;
51718;SDS011;37795;53.236;5.704;2022-08-02T12:06:36;15.40;;;13.80;;
51718;SDS011;37795;53.236;5.704;2022-08-02T12:09:06;15.95;;;13.50;;
51718;SDS011;37795;53.236;5.704;2022-08-02T12:11:33;17.23;;;13.83;;
51718;SDS011;37795;53.236;5.704;2022-08-02T12:14:00;20.67;;;13.95;;
51718;SDS011;37795;53.236;5.704;2022-08-02T12:17:00;14.80;;;12.63;;
51718;SDS011;37795;53.236;5.704;2022-08-02T12:19:37;17.65;;;12.95;;
51718;SDS011;37795;53.236;5.704;2022-08-02T12:24:33;13.67;;;11.97;;
51718;SDS011;37795;53.236;5.704;2022-08-02T12:26:59;13.25;;;10.80;;
51718;SDS011;37795;53.236;5.704;2022-08-02T12:29:29;12.70;;;8.87;;
51718;SDS011;37795;53.236;5.704;2022-08-02T12:31:55;9.48;;;8.45;;
51718;SDS011;37795;53.236;5.704;2022-08-02T12:34:22;11.68;;;8.10;;
51718;SDS011;37795;53.236;5.704;2022-08-02T12:37:03;10.00;;;8.38;;
51718;SDS011;37795;53.236;5.704;2022-08-02T12:39:43;10.25;;;7.70;;
51718;SDS011;37795;53.236;5.704;2022-08-02T12:42:13;10.23;;;8.25;;
51718;SDS011;37795;53.236;5.704;2022-08-02T12:44:53;9.30;;;7.47;;
51718;SDS011;37795;53.236;5.704;2022-08-02T12:47:19;17.45;;;8.73;;
51718;SDS011;37795;53.236;5.704;2022-08-02T12:49:46;9.50;;;8.25;;
51718;SDS011;37795;53.236;5.704;2022-08-02T12:52:19;10.70;;;7.67;;
51718;SDS011;37795;53.236;5.704;2022-08-02T12:54:46;8.45;;;7.55;;
51718;SDS011;37795;53.236;5.704;2022-08-02T12:57:16;8.38;;;7.22;;
51718;SDS011;37795;53.236;5.704;2022-08-02T12:59:43;8.63;;;7.78;;
51718;SDS011;37795;53.236;5.704;2022-08-02T13:02:10;6.32;;;5.60;;
51718;SDS011;37795;53.236;5.704;2022-08-02T13:04:36;7.53;;;6.63;;
51718;SDS011;37795;53.236;5.704;2022-08-02T13:11:54;7.82;;;5.95;;
51718;SDS011;37795;53.236;5.704;2022-08-02T13:14:20;7.68;;;5.88;;
51718;SDS011;37795;53.236;5.704;2022-08-02T13:16:46;7.25;;;6.53;;
51718;SDS011;37795;53.236;5.704;2022-08-02T13:19:13;8.35;;;6.85;;
51718;SDS011;37795;53.236;5.704;2022-08-02T13:21:39;8.48;;;6.38;;
51718;SDS011;37795;53.236;5.704;2022-08-02T13:24:05;11.55;;;7.30;;
51718;SDS011;37795;53.236;5.704;2022-08-02T13:26:32;9.40;;;6.68;;
51718;SDS011;37795;53.236;5.704;2022-08-02T13:28:58;11.27;;;6.30;;
51718;SDS011;37795;53.236;5.704;2022-08-02T13:31:24;7.97;;;5.20;;
51718;SDS011;37795;53.236;5.704;2022-08-02T13:33:50;6.97;;;5.88;;
51718;SDS011;37795;53.236;5.704;2022-08-02T13:36:16;5.43;;;4.78;;
51718;SDS011;37795;53.236;5.704;2022-08-02T13:38:42;7.50;;;5.10;;
51718;SDS011;37795;53.236;5.704;2022-08-02T13:41:08;7.00;;;5.55;;
51718;SDS011;37795;53.236;5.704;2022-08-02T13:43:37;7.15;;;5.40;;
51718;SDS011;37795;53.236;5.704;2022-08-02T13:46:04;8.20;;;5.05;;
51718;SDS011;37795;53.236;5.704;2022-08-02T13:48:30;7.65;;;5.50;;
51718;SDS011;37795;53.236;5.704;2022-08-02T13:50:56;5.57;;;4.80;;
51718;SDS011;37795;53.236;5.704;2022-08-02T13:53:22;7.45;;;4.88;;
51718;SDS011;37795;53.236;5.704;2022-08-02T13:55:49;7.30;;;5.17;;
51718;SDS011;37795;53.236;5.704;2022-08-02T13:58:15;8.77;;;5.32;;
51718;SDS011;37795;53.236;5.704;2022-08-02T14:00:41;8.07;;;5.05;;
51718;SDS011;37795;53.236;5.704;2022-08-02T14:03:07;6.45;;;5.28;;
51718;SDS011;37795;53.236;5.704;2022-08-02T14:05:37;7.85;;;5.70;;
51718;SDS011;37795;53.236;5.704;2022-08-02T14:08:04;8.45;;;5.40;;
51718;SDS011;37795;53.236;5.704;2022-08-02T14:10:30;10.15;;;6.03;;
51718;SDS011;37795;53.236;5.704;2022-08-02T14:12:56;8.25;;;5.32;;
51718;SDS011;37795;53.236;5.704;2022-08-02T14:15:22;7.32;;;6.03;;
51718;SDS011;37795;53.236;5.704;2022-08-02T14:17:48;7.53;;;5.22;;
51718;SDS011;37795;53.236;5.704;2022-08-02T14:20:14;6.47;;;5.20;;
51718;SDS011;37795;53.236;5.704;2022-08-02T14:22:40;5.18;;;4.32;;
51718;SDS011;37795;53.236;5.704;2022-08-02T14:25:06;5.63;;;4.03;;
51718;SDS011;37795;53.236;5.704;2022-08-02T14:27:33;6.95;;;4.18;;
51718;SDS011;37795;53.236;5.704;2022-08-02T14:29:59;7.70;;;3.25;;
51718;SDS011;37795;53.236;5.704;2022-08-02T14:32:25;5.47;;;3.63;;
51718;SDS011;37795;53.236;5.704;2022-08-02T14:34:51;6.97;;;3.47;;
51718;SDS011;37795;53.236;5.704;2022-08-02T14:37:17;3.72;;;2.90;;
51718;SDS011;37795;53.236;5.704;2022-08-02T14:39:43;8.23;;;3.17;;
51718;SDS011;37795;53.236;5.704;2022-08-02T14:42:09;3.20;;;2.80;;
51718;SDS011;37795;53.236;5.704;2022-08-02T14:44:36;3.97;;;3.10;;
51718;SDS011;37795;53.236;5.704;2022-08-02T14:47:02;4.15;;;2.70;;
51718;SDS011;37795;53.236;5.704;2022-08-02T14:49:30;5.18;;;2.95;;
51718;SDS011;37795;53.236;5.704;2022-08-02T14:51:56;4.28;;;2.80;;
51718;SDS011;37795;53.236;5.704;2022-08-02T14:54:23;5.05;;;2.55;;
51718;SDS011;37795;53.236;5.704;2022-08-02T14:56:52;5.22;;;3.00;;
51718;SDS011;37795;53.236;5.704;2022-08-02T14:59:18;4.82;;;2.90;;
51718;SDS011;37795;53.236;5.704;2022-08-02T15:01:44;8.45;;;2.72;;
51718;SDS011;37795;53.236;5.704;2022-08-02T15:04:10;9.48;;;3.08;;
51718;SDS011;37795;53.236;5.704;2022-08-02T15:06:37;7.60;;;3.05;;
51718;SDS011;37795;53.236;5.704;2022-08-02T15:09:04;5.22;;;3.35;;
51718;SDS011;37795;53.236;5.704;2022-08-02T15:11:30;8.82;;;3.78;;
51718;SDS011;37795;53.236;5.704;2022-08-02T15:13:56;5.35;;;3.58;;
51718;SDS011;37795;53.236;5.704;2022-08-02T15:16:24;6.70;;;3.60;;
51718;SDS011;37795;53.236;5.704;2022-08-02T15:18:50;6.60;;;3.33;;
51718;SDS011;37795;53.236;5.704;2022-08-02T15:21:16;5.63;;;3.03;;
51718;SDS011;37795;53.236;5.704;2022-08-02T15:23:42;5.68;;;3.28;;
51718;SDS011;37795;53.236;5.704;2022-08-02T15:26:09;7.72;;;3.72;;
51718;SDS011;37795;53.236;5.704;2022-08-02T15:28:35;6.75;;;3.00;;
51718;SDS011;37795;53.236;5.704;2022-08-02T15:31:02;8.25;;;3.20;;
51718;SDS011;37795;53.236;5.704;2022-08-02T15:33:28;4.80;;;2.50;;
51718;SDS011;37795;53.236;5.704;2022-08-02T15:35:54;4.50;;;2.78;;